createdAt,value
2022-07-29T00:00:24.506Z,61.81
2022-07-29T00:03:04.327Z,61.96
2022-07-29T00:05:32.712Z,62.10
2022-07-29T00:08:00.830Z,62.01
2022-07-29T00:10:29.062Z,62.12
2022-07-29T00:12:57.235Z,62.08
2022-07-29T00:15:25.511Z,62.30
2022-07-29T00:17:53.684Z,66.79
2022-07-29T00:20:21.858Z,63.14
2022-07-29T00:22:50.031Z,54.32
2022-07-29T00:25:18.104Z,53.31
2022-07-29T00:27:47.403Z,54.44
2022-07-29T00:30:15.818Z,55.32
2022-07-29T00:32:44.061Z,55.84
2022-07-29T00:35:30.767Z,56.90
2022-07-29T00:37:58.941Z,57.47
2022-07-29T00:40:27.116Z,58.21
2022-07-29T00:42:55.394Z,58.62
2022-07-29T00:45:24.003Z,58.44
2022-07-29T00:47:52.662Z,58.66
2022-07-29T00:50:20.938Z,59.37
2022-07-29T00:52:49.213Z,59.58
2022-07-29T00:55:18.151Z,59.90
2022-07-29T00:57:47.404Z,60.14
2022-07-29T01:00:21.724Z,60.30
2022-07-29T01:02:50.423Z,60.57
2022-07-29T01:05:21.347Z,60.64
2022-07-29T01:07:52.491Z,60.73
2022-07-29T01:10:22.439Z,61.21
2022-07-29T01:12:53.757Z,61.21
2022-07-29T01:15:22.428Z,61.35
2022-07-29T01:17:53.378Z,61.44
2022-07-29T01:20:33.058Z,61.61
2022-07-29T01:23:18.405Z,61.84
2022-07-29T01:26:01.933Z,61.62
2022-07-29T01:28:50.692Z,61.81
2022-07-29T01:31:42.571Z,67.28
2022-07-29T01:34:32.245Z,59.53
2022-07-29T01:37:19.826Z,52.70
2022-07-29T01:39:51.071Z,53.03
2022-07-29T01:42:44.438Z,54.52
2022-07-29T01:45:21.211Z,55.23
2022-07-29T01:48:11.815Z,55.98
2022-07-29T01:50:50.738Z,56.77
2022-07-29T01:53:36.452Z,57.50
2022-07-29T01:56:10.332Z,57.57
2022-07-29T01:58:41.781Z,58.21
2022-07-29T02:01:12.412Z,58.55
2022-07-29T02:03:45.298Z,58.76
2022-07-29T02:06:18.183Z,59.00
2022-07-29T02:08:49.134Z,59.18
2022-07-29T02:11:17.908Z,59.43
2022-07-29T02:13:48.233Z,59.43
2022-07-29T02:16:20.391Z,59.71
2022-07-29T02:18:52.875Z,59.96
2022-07-29T02:21:25.451Z,60.05
2022-07-29T02:23:54.753Z,60.37
2022-07-29T02:26:25.895Z,60.43
2022-07-29T02:28:58.063Z,60.94
2022-07-29T02:31:31.514Z,61.05
2022-07-29T02:34:01.476Z,61.39
2022-07-29T02:36:32.463Z,61.37
2022-07-29T02:39:03.149Z,61.53
2022-07-29T02:41:44.943Z,61.67
2022-07-29T02:44:15.432Z,61.63
2022-07-29T02:47:18.257Z,61.36
2022-07-29T02:50:03.843Z,61.70
2022-07-29T02:52:45.223Z,61.75
2022-07-29T02:55:34.902Z,61.83
2022-07-29T02:58:14.748Z,61.86
2022-07-29T03:00:46.216Z,61.97
2022-07-29T03:03:18.060Z,67.15
2022-07-29T03:05:46.903Z,62.41
2022-07-29T03:08:17.178Z,53.73
2022-07-29T03:10:48.425Z,52.19
2022-07-29T03:13:17.718Z,53.53
2022-07-29T03:15:46.732Z,54.37
2022-07-29T03:18:16.318Z,55.10
2022-07-29T03:20:45.006Z,56.14
2022-07-29T03:23:13.383Z,56.65
2022-07-29T03:25:41.559Z,57.20
2022-07-29T03:28:10.038Z,57.75
2022-07-29T03:30:38.357Z,58.31
2022-07-29T03:33:10.219Z,58.35
2022-07-29T03:35:42.666Z,59.56
2022-07-29T03:38:11.131Z,59.34
2022-07-29T03:40:47.906Z,59.55
2022-07-29T03:43:18.131Z,59.97
2022-07-29T03:45:49.885Z,60.21
2022-07-29T03:48:21.030Z,60.58
2022-07-29T03:50:51.680Z,60.05
2022-07-29T03:53:19.938Z,60.96
2022-07-29T03:55:56.241Z,61.34
2022-07-29T03:58:27.469Z,61.44
2022-07-29T04:00:57.084Z,61.24
2022-07-29T04:03:25.453Z,61.70
2022-07-29T04:06:07.225Z,61.69
2022-07-29T04:08:35.957Z,67.36
2022-07-29T04:11:05.212Z,62.46
2022-07-29T04:13:34.280Z,53.12
2022-07-29T04:16:02.766Z,52.33
2022-07-29T04:18:31.066Z,54.01
2022-07-29T04:21:02.005Z,54.71
2022-07-29T04:23:34.790Z,55.70
2022-07-29T04:26:02.960Z,56.33
2022-07-29T04:28:31.134Z,56.65
2022-07-29T04:30:59.330Z,57.16
2022-07-29T04:33:27.584Z,57.83
2022-07-29T04:35:55.760Z,58.08
2022-07-29T04:38:23.932Z,58.37
2022-07-29T04:40:52.107Z,59.10
2022-07-29T04:43:22.487Z,59.41
2022-07-29T04:45:51.845Z,59.75
2022-07-29T04:48:22.920Z,59.96
2022-07-29T04:50:54.836Z,59.97
2022-07-29T04:53:23.012Z,60.42
2022-07-29T04:55:51.185Z,60.75
2022-07-29T04:58:19.665Z,61.00
2022-07-29T05:00:47.883Z,61.45
2022-07-29T05:03:16.014Z,61.55
2022-07-29T05:05:44.188Z,61.48
2022-07-29T05:08:12.365Z,61.76
2022-07-29T05:10:40.482Z,66.07
2022-07-29T05:13:09.221Z,62.05
2022-07-29T05:15:38.198Z,54.08
2022-07-29T05:18:06.928Z,53.02
2022-07-29T05:20:35.837Z,53.75
2022-07-29T05:23:04.524Z,54.27
2022-07-29T05:25:43.116Z,55.21
2022-07-29T05:28:12.910Z,55.70
2022-07-29T05:30:41.217Z,56.46
2022-07-29T05:33:09.461Z,56.87
2022-07-29T05:36:01.149Z,57.23
2022-07-29T05:38:30.589Z,57.87
2022-07-29T05:41:00.901Z,58.69
2022-07-29T05:43:29.805Z,59.17
2022-07-29T05:45:58.725Z,59.07
2022-07-29T05:48:27.176Z,59.20
2022-07-29T05:50:55.940Z,59.37
2022-07-29T05:53:25.002Z,59.85
2022-07-29T05:55:53.541Z,60.11
2022-07-29T05:58:22.101Z,60.26
2022-07-29T06:00:50.457Z,60.33
2022-07-29T06:03:18.520Z,60.41
2022-07-29T06:05:46.749Z,60.42
2022-07-29T06:08:14.821Z,60.06
2022-07-29T06:10:42.998Z,60.36
2022-07-29T06:13:11.270Z,60.32
2022-07-29T06:15:39.591Z,60.60
2022-07-29T06:18:11.053Z,60.49
2022-07-29T06:20:39.486Z,60.41
2022-07-29T06:23:07.652Z,60.24
2022-07-29T06:25:39.001Z,60.49
2022-07-29T06:28:07.705Z,60.19
2022-07-29T06:30:36.005Z,59.83
2022-07-29T06:33:05.061Z,60.31
2022-07-29T06:35:39.066Z,60.48
2022-07-29T06:38:31.439Z,60.30
2022-07-29T06:41:08.799Z,60.23
2022-07-29T06:43:52.599Z,60.07
2022-07-29T06:46:24.226Z,60.13
2022-07-29T06:48:53.670Z,59.99
2022-07-29T06:51:23.894Z,59.92
2022-07-29T06:54:00.168Z,59.56
2022-07-29T06:56:38.376Z,59.67
2022-07-29T06:59:12.454Z,59.71
2022-07-29T07:01:43.309Z,59.66
2022-07-29T07:04:12.466Z,59.08
2022-07-29T07:06:40.922Z,59.05
2022-07-29T07:09:09.200Z,59.07
2022-07-29T07:11:37.383Z,58.46
2022-07-29T07:14:05.544Z,58.46
2022-07-29T07:16:34.089Z,58.69
2022-07-29T07:19:02.316Z,57.96
2022-07-29T07:21:31.328Z,58.12
2022-07-29T07:24:01.018Z,57.36
2022-07-29T07:26:29.566Z,57.24
2022-07-29T07:28:57.865Z,56.78
2022-07-29T07:31:26.354Z,57.06
2022-07-29T07:33:54.798Z,56.60
2022-07-29T07:36:24.297Z,56.90
2022-07-29T07:38:52.452Z,56.79
2022-07-29T07:41:21.191Z,56.42
2022-07-29T07:43:49.671Z,56.35
2022-07-29T07:46:18.121Z,56.57
2022-07-29T07:48:46.401Z,56.36
2022-07-29T07:51:14.603Z,56.25
2022-07-29T07:53:42.781Z,55.89
2022-07-29T07:56:12.462Z,56.11
2022-07-29T07:58:41.176Z,55.68
2022-07-29T08:01:10.523Z,55.92
2022-07-29T08:03:40.117Z,55.63
2022-07-29T08:06:08.458Z,55.25
2022-07-29T08:08:36.634Z,55.67
2022-07-29T08:11:09.578Z,55.65
2022-07-29T08:13:39.251Z,55.38
2022-07-29T08:16:14.273Z,55.57
2022-07-29T08:18:44.488Z,55.86
2022-07-29T08:21:15.294Z,56.14
2022-07-29T08:23:59.632Z,55.90
2022-07-29T08:26:29.076Z,56.24
2022-07-29T08:28:57.249Z,56.05
2022-07-29T08:31:25.528Z,55.98
2022-07-29T08:33:53.906Z,55.98
2022-07-29T08:36:22.364Z,55.79
2022-07-29T08:38:50.847Z,55.92
2022-07-29T08:41:22.627Z,55.80
2022-07-29T08:43:52.184Z,55.80
2022-07-29T08:46:21.867Z,55.49
2022-07-29T08:48:50.251Z,55.92
2022-07-29T08:51:21.466Z,55.76
2022-07-29T08:53:50.971Z,55.35
2022-07-29T08:56:20.680Z,55.38
2022-07-29T08:58:51.844Z,55.39
2022-07-29T09:01:36.511Z,55.39
2022-07-29T09:04:13.394Z,55.75
2022-07-29T09:06:47.372Z,55.55
2022-07-29T09:09:16.490Z,55.22
2022-07-29T09:11:45.057Z,55.15
2022-07-29T09:14:14.700Z,55.20
2022-07-29T09:16:53.123Z,55.20
2022-07-29T09:19:28.519Z,55.10
2022-07-29T09:21:58.880Z,55.00
2022-07-29T09:24:37.768Z,55.24
2022-07-29T09:27:22.018Z,55.19
2022-07-29T09:30:01.354Z,55.01
2022-07-29T09:32:30.762Z,55.28
2022-07-29T09:35:22.485Z,55.15
2022-07-29T09:37:51.784Z,55.13
2022-07-29T09:40:29.813Z,55.26
2022-07-29T09:42:58.678Z,54.68
2022-07-29T09:45:35.763Z,54.91
2022-07-29T09:48:17.791Z,54.99
2022-07-29T09:50:48.288Z,54.75
2022-07-29T09:53:41.141Z,54.76
2022-07-29T09:56:09.521Z,54.62
2022-07-29T09:58:37.898Z,54.76
2022-07-29T10:01:06.101Z,54.44
2022-07-29T10:03:52.294Z,54.05
2022-07-29T10:06:20.599Z,53.74
2022-07-29T10:08:50.709Z,53.67
2022-07-29T10:11:20.274Z,53.45
2022-07-29T10:13:49.675Z,53.63
2022-07-29T10:16:18.155Z,52.99
2022-07-29T10:18:48.082Z,52.64
2022-07-29T10:21:22.491Z,52.95
2022-07-29T10:24:06.095Z,52.96
2022-07-29T10:26:34.882Z,53.31
2022-07-29T10:29:03.192Z,52.48
2022-07-29T10:31:51.373Z,52.10
2022-07-29T10:34:41.217Z,52.32
2022-07-29T10:37:29.565Z,52.38
2022-07-29T10:40:47.710Z,52.01
2022-07-29T10:43:30.002Z,52.30
2022-07-29T10:46:02.082Z,52.12
2022-07-29T10:48:30.563Z,51.79
2022-07-29T10:51:05.188Z,51.56
2022-07-29T10:53:48.964Z,51.65
2022-07-29T10:56:27.966Z,52.22
2022-07-29T10:59:21.671Z,51.96
2022-07-29T11:01:53.672Z,51.57
2022-07-29T11:04:45.008Z,51.16
2022-07-29T11:07:15.280Z,51.01
2022-07-29T11:09:43.910Z,50.64
2022-07-29T11:12:38.888Z,50.44
2022-07-29T11:15:09.890Z,50.11
2022-07-29T11:17:59.542Z,49.90
2022-07-29T11:20:39.227Z,50.04
2022-07-29T11:23:27.628Z,49.94
2022-07-29T11:26:19.101Z,49.72
2022-07-29T11:28:53.465Z,50.32
2022-07-29T11:31:44.630Z,50.09
2022-07-29T11:34:23.425Z,48.80
2022-07-29T11:37:14.665Z,48.71
2022-07-29T11:39:55.998Z,49.40
2022-07-29T11:42:30.483Z,49.51
2022-07-29T11:45:08.468Z,49.09
2022-07-29T11:47:55.503Z,49.16
2022-07-29T11:50:33.545Z,49.39
2022-07-29T11:53:11.669Z,49.53
2022-07-29T11:58:30.632Z,50.08
2022-07-29T12:01:04.197Z,48.65
2022-07-29T12:03:47.728Z,48.15
2022-07-29T12:06:17.622Z,48.66
2022-07-29T12:07:02.363Z,48.82
2022-07-29T12:08:47.492Z,48.28
2022-07-29T12:11:21.774Z,48.50
2022-07-29T12:13:52.710Z,48.86
2022-07-29T12:16:26.034Z,48.76
2022-07-29T12:18:59.597Z,48.32
2022-07-29T12:21:28.876Z,48.56
2022-07-29T12:24:05.966Z,49.00
2022-07-29T12:26:49.972Z,49.85
2022-07-29T12:29:20.166Z,49.35
2022-07-29T12:32:01.906Z,49.45
2022-07-29T12:34:30.836Z,49.65
2022-07-29T12:36:59.182Z,50.32
2022-07-29T12:39:29.176Z,49.95
2022-07-29T12:42:03.950Z,49.83
2022-07-29T12:44:49.790Z,49.85
2022-07-29T12:47:19.346Z,50.01
2022-07-29T12:49:49.651Z,49.69
2022-07-29T12:52:35.814Z,48.93
2022-07-29T12:55:05.299Z,49.07
2022-07-29T12:57:46.600Z,48.76
2022-07-29T13:00:16.522Z,48.41
2022-07-29T13:02:45.119Z,48.34
2022-07-29T13:05:13.991Z,48.27
2022-07-29T13:07:55.389Z,48.37
2022-07-29T13:10:26.231Z,48.03
2022-07-29T13:13:10.674Z,47.61
2022-07-29T13:15:41.196Z,47.69
2022-07-29T13:18:32.614Z,47.26
2022-07-29T13:21:16.006Z,47.48
2022-07-29T13:23:44.936Z,47.91
2022-07-29T13:26:13.481Z,47.01
2022-07-29T13:28:44.245Z,47.45
2022-07-29T13:31:12.793Z,47.39
2022-07-29T13:33:40.908Z,47.25
2022-07-29T13:36:09.083Z,47.84
2022-07-29T13:38:37.260Z,47.41
2022-07-29T13:41:05.430Z,47.28
2022-07-29T13:43:33.809Z,47.36
2022-07-29T13:46:02.069Z,47.14
2022-07-29T13:48:30.364Z,47.17
2022-07-29T13:50:58.536Z,47.62
2022-07-29T13:53:27.317Z,47.28
2022-07-29T13:55:56.340Z,46.93
2022-07-29T13:58:24.593Z,47.42
2022-07-29T14:00:52.915Z,46.97
2022-07-29T14:03:21.248Z,47.18
2022-07-29T14:05:49.524Z,46.99
2022-07-29T14:08:17.800Z,46.89
2022-07-29T14:10:46.079Z,47.19
2022-07-29T14:13:24.398Z,47.19
2022-07-29T14:15:54.611Z,47.24
2022-07-29T14:18:22.887Z,47.10
2022-07-29T14:20:52.291Z,46.81
2022-07-29T14:23:20.504Z,46.62
2022-07-29T14:25:49.450Z,47.03
2022-07-29T14:28:18.041Z,46.92
2022-07-29T14:30:46.214Z,47.10
2022-07-29T14:33:14.597Z,47.06
2022-07-29T14:35:42.766Z,47.36
2022-07-29T14:38:10.943Z,47.30
2022-07-29T14:40:39.421Z,47.72
2022-07-29T14:43:07.599Z,47.62
2022-07-29T14:45:35.946Z,47.58
2022-07-29T14:48:04.456Z,47.78
2022-07-29T14:50:32.778Z,47.71
2022-07-29T14:53:02.049Z,47.83
2022-07-29T14:55:30.595Z,47.96
2022-07-29T14:58:07.977Z,47.82
2022-07-29T15:00:39.457Z,48.16
2022-07-29T15:03:11.169Z,48.34
2022-07-29T15:05:40.311Z,48.20
2022-07-29T15:08:09.508Z,48.07
2022-07-29T15:10:37.681Z,47.78
2022-07-29T15:13:05.962Z,47.98
2022-07-29T15:15:34.234Z,48.02
2022-07-29T15:18:02.510Z,47.98
2022-07-29T15:20:30.735Z,47.86
2022-07-29T15:22:58.802Z,47.91
2022-07-29T15:25:28.385Z,47.91
2022-07-29T15:28:01.257Z,47.95
2022-07-29T15:30:33.882Z,47.72
2022-07-29T15:33:04.645Z,48.20
2022-07-29T15:35:40.479Z,48.08
2022-07-29T15:38:09.535Z,48.26
2022-07-29T15:40:44.747Z,48.02
2022-07-29T15:43:13.023Z,48.16
2022-07-29T15:46:03.865Z,48.00
2022-07-29T15:48:43.105Z,47.84
2022-07-29T15:51:11.235Z,47.94
2022-07-29T15:53:39.409Z,47.78
2022-07-29T15:56:08.002Z,47.99
2022-07-29T15:58:36.167Z,47.96
2022-07-29T16:01:04.390Z,48.30
2022-07-29T16:03:33.749Z,48.09
2022-07-29T16:06:02.224Z,48.38
2022-07-29T16:08:30.808Z,48.05
2022-07-29T16:10:58.984Z,48.31
2022-07-29T16:13:27.053Z,48.32
2022-07-29T16:16:02.237Z,48.61
2022-07-29T16:18:31.595Z,48.54
2022-07-29T16:20:59.770Z,48.50
2022-07-29T16:23:27.944Z,48.71
2022-07-29T16:26:00.835Z,48.77
2022-07-29T16:28:30.875Z,48.87
2022-07-29T16:30:59.843Z,48.94
2022-07-29T16:33:28.727Z,48.97
2022-07-29T16:36:18.443Z,49.05
2022-07-29T16:38:48.219Z,49.21
2022-07-29T16:41:16.549Z,49.31
2022-07-29T16:43:44.770Z,49.42
2022-07-29T16:46:18.445Z,49.58
2022-07-29T16:48:47.132Z,49.70
2022-07-29T16:51:16.914Z,49.85
2022-07-29T16:53:46.067Z,49.85
2022-07-29T16:56:18.657Z,50.01
2022-07-29T16:58:47.433Z,50.15
2022-07-29T17:01:16.262Z,50.20
2022-07-29T17:04:02.875Z,50.20
2022-07-29T17:06:32.334Z,50.24
2022-07-29T17:09:00.507Z,50.43
2022-07-29T17:11:53.425Z,50.53
2022-07-29T17:14:16.925Z,50.44
2022-07-29T17:17:00.591Z,50.64
2022-07-29T17:19:35.718Z,50.65
2022-07-29T17:22:15.510Z,50.50
2022-07-29T17:24:47.813Z,50.74
2022-07-29T17:27:16.502Z,50.76
2022-07-29T17:29:45.701Z,50.95
2022-07-29T17:32:14.274Z,50.86
2022-07-29T17:34:43.077Z,51.09
2022-07-29T17:37:12.455Z,51.03
2022-07-29T17:39:42.184Z,51.50
2022-07-29T17:42:12.409Z,51.82
2022-07-29T17:44:41.507Z,51.89
2022-07-29T17:47:16.521Z,52.51
2022-07-29T17:49:45.647Z,52.44
2022-07-29T17:52:13.908Z,52.87
2022-07-29T17:54:42.085Z,53.68
2022-07-29T17:57:10.154Z,53.80
2022-07-29T17:59:38.328Z,53.27
2022-07-29T18:02:06.521Z,53.13
2022-07-29T18:04:34.880Z,53.54
2022-07-29T18:07:03.055Z,54.65
2022-07-29T18:09:31.229Z,56.04
2022-07-29T18:11:59.403Z,56.67
2022-07-29T18:14:27.678Z,57.59
2022-07-29T18:19:37.851Z,59.37
2022-07-29T18:22:07.765Z,59.67
2022-07-29T18:24:36.042Z,61.31
2022-07-29T18:27:04.215Z,62.77
2022-07-29T18:29:32.595Z,64.23
2022-07-29T18:32:01.895Z,58.50
2022-07-29T18:34:30.478Z,57.12
2022-07-29T18:36:58.884Z,58.36
2022-07-29T18:39:27.338Z,59.84
2022-07-29T18:41:55.511Z,65.16
2022-07-29T18:44:23.685Z,63.27
2022-07-29T18:46:52.469Z,57.27
2022-07-29T18:49:21.044Z,57.69
2022-07-29T18:51:50.669Z,58.71
2022-07-29T18:54:19.660Z,61.01
2022-07-29T18:56:47.934Z,61.47
2022-07-29T18:59:17.441Z,65.93
2022-07-29T19:01:46.185Z,63.41
2022-07-29T19:04:15.732Z,57.97
2022-07-29T19:06:44.008Z,57.54
2022-07-29T19:09:12.183Z,58.96
2022-07-29T19:11:40.765Z,61.38
2022-07-29T19:14:09.144Z,64.43
2022-07-29T19:16:37.523Z,61.95
2022-07-29T19:19:07.540Z,56.78
2022-07-29T19:21:36.329Z,57.46
2022-07-29T19:24:08.545Z,59.85
2022-07-29T19:26:44.250Z,63.61
2022-07-29T19:29:13.687Z,63.41
2022-07-29T19:31:43.057Z,59.26
2022-07-29T19:34:11.583Z,57.37
2022-07-29T19:36:39.913Z,59.63
2022-07-29T19:39:08.190Z,61.81
2022-07-29T19:41:36.660Z,65.91
2022-07-29T19:44:04.998Z,63.79
2022-07-29T19:46:33.216Z,59.17
2022-07-29T19:49:01.582Z,56.99
2022-07-29T19:51:29.878Z,59.32
2022-07-29T19:53:58.098Z,62.23
2022-07-29T19:56:27.659Z,64.88
2022-07-29T19:58:57.266Z,61.20
2022-07-29T20:01:25.411Z,57.81
2022-07-29T20:03:54.156Z,58.63
2022-07-29T20:06:23.324Z,60.63
2022-07-29T20:08:56.757Z,62.60
2022-07-29T20:11:27.557Z,65.00
2022-07-29T20:13:55.834Z,60.71
2022-07-29T20:16:25.361Z,57.35
2022-07-29T20:18:53.820Z,58.16
2022-07-29T20:21:22.096Z,59.96
2022-07-29T20:23:50.270Z,61.94
2022-07-29T20:26:18.661Z,65.17
2022-07-29T20:28:49.397Z,61.94
2022-07-29T20:31:19.070Z,56.84
2022-07-29T20:33:47.473Z,57.16
2022-07-29T20:36:15.748Z,59.70
2022-07-29T20:38:43.922Z,61.44
2022-07-29T20:41:12.097Z,64.95
2022-07-29T20:43:40.577Z,61.26
2022-07-29T20:46:08.783Z,56.17
2022-07-29T20:48:37.232Z,57.39
2022-07-29T20:51:06.007Z,59.73
2022-07-29T20:53:34.296Z,61.08
2022-07-29T20:56:02.472Z,65.02
2022-07-29T20:58:32.697Z,61.27
2022-07-29T21:01:01.583Z,55.83
2022-07-29T21:03:29.859Z,57.28
2022-07-29T21:05:58.034Z,60.02
2022-07-29T21:08:26.990Z,61.85
2022-07-29T21:10:55.508Z,64.86
2022-07-29T21:13:25.734Z,59.45
2022-07-29T21:16:00.465Z,56.10
2022-07-29T21:18:33.342Z,58.36
2022-07-29T21:21:01.725Z,60.60
2022-07-29T21:23:30.444Z,62.84
2022-07-29T21:25:59.138Z,64.07
2022-07-29T21:28:27.284Z,58.21
2022-07-29T21:31:01.278Z,56.51
2022-07-29T21:33:30.989Z,58.82
2022-07-29T21:36:26.777Z,61.21
2022-07-29T21:38:49.044Z,65.07
2022-07-29T21:41:17.116Z,60.13
2022-07-29T21:43:46.315Z,55.91
2022-07-29T21:46:16.976Z,57.32
2022-07-29T21:48:45.317Z,59.91
2022-07-29T21:51:13.498Z,61.86
2022-07-29T21:53:42.594Z,65.22
2022-07-29T21:56:14.447Z,61.02
2022-07-29T21:58:43.549Z,56.03
2022-07-29T22:01:11.874Z,57.09
2022-07-29T22:03:40.101Z,59.46
2022-07-29T22:06:08.377Z,61.51
2022-07-29T22:08:41.979Z,64.78
2022-07-29T22:11:10.153Z,61.43
2022-07-29T22:13:38.327Z,56.05
2022-07-29T22:16:07.356Z,56.55
2022-07-29T22:18:35.494Z,59.17
2022-07-29T22:21:03.771Z,61.35
2022-07-29T22:23:31.944Z,65.41
2022-07-29T22:26:00.016Z,61.23
2022-07-29T22:28:28.192Z,56.33
2022-07-29T22:30:56.350Z,57.09
2022-07-29T22:33:24.640Z,59.46
2022-07-29T22:35:52.813Z,61.43
2022-07-29T22:38:20.987Z,65.10
2022-07-29T22:40:51.419Z,61.59
2022-07-29T22:43:19.587Z,57.06
2022-07-29T22:45:47.812Z,57.57
2022-07-29T22:48:16.371Z,59.88
2022-07-29T22:50:44.832Z,62.01
2022-07-29T22:53:13.000Z,65.72
2022-07-29T22:55:41.174Z,61.54
2022-07-29T22:58:09.554Z,56.60
2022-07-29T23:00:37.845Z,57.64
2022-07-29T23:03:06.010Z,59.83
2022-07-29T23:05:34.281Z,61.58
2022-07-29T23:08:02.458Z,65.35
2022-07-29T23:10:30.631Z,61.69
2022-07-29T23:12:58.904Z,57.06
2022-07-29T23:15:27.077Z,57.31
2022-07-29T23:17:55.355Z,59.84
2022-07-29T23:20:23.425Z,62.16
2022-07-29T23:22:51.702Z,65.29
2022-07-29T23:25:20.286Z,60.76
2022-07-29T23:27:48.664Z,57.22
2022-07-29T23:30:16.939Z,58.41
2022-07-29T23:32:45.117Z,60.57
2022-07-29T23:35:13.229Z,63.60
2022-07-29T23:37:41.359Z,62.88
2022-07-29T23:40:14.190Z,57.39
2022-07-29T23:42:43.193Z,56.74
2022-07-29T23:45:13.998Z,59.01
2022-07-29T23:47:42.863Z,61.20
2022-07-29T23:50:12.795Z,65.25
2022-07-29T23:52:41.975Z,61.80
2022-07-29T23:55:37.594Z,56.73
2022-07-29T23:58:00.952Z,57.83
